San Antonio, Texas
Traffic Map
Current Weather Conditions
San Antonio, Texas
Clear
Clear
21°
Feels Like: 21°
Wind Chill: 21° Ceiling: Unl
Heat Index: 21° Visibility: 10mi
Dew Point: 18° Wind: 8mph
Humidity: 85% Direction: 160° (SSE)
Pressure: 29.94in Gusts: 0mph
Raw Report DataKSKF 010058Z AUTO 16007KT 10SM CLR 21/18 A2994 RMK AO2 VIS 1/4 RWY33 SLP134 T02090183 $
Traffic Incident Summary
Active as of:
Severity:
Category:
InformationThere was an issue retrieving the traffic information for this location. Please try a different location or try again shortly.
Advertisements
Track Severe Weather on mobile